Beautiful Rena — C6YE7 — position and weather

sailwx.info

Track history (hours):
 
Tides and Currents Weather Stations Pressure Air Temp Water Temp Dewpoint Dewpoint Depression Visibility Wind Speed Wind Dir Waves Ship Positions

Beautiful Rena

Last reported at 2015-Jul-11 22:06 UTC. Time now 2015-Jul-31 17:29 UTC.
Position N 25°23' E 120°01'.
Warning: this ship's position is 19 days out of date.

Length 190 m; draft 6.5 m.

Type: Cargo ship. MMSI: 311030200.

Date/timePositionNaut miles runAvg speedWind from/ knotsBaromVisibWave heightAir tempDewpointWater temp
2015-Jul-11 22:06N 25°23' E 120°01'810.0
2015-Jul-11 21:18N 25°16' E 119°57'1210.6
2015-Jul-11 20:08N 25°05' E 119°51'610.8
2015-Jul-11 19:33N 24°60' E 119°48'5811.2
2015-Jul-11 14:23N 24°20' E 119°01'3010.4
2015-Jul-11 11:27N 24°00' E 118°35'1010.7
2015-Jul-11 10:33N 23°54' E 118°27'1211.2
2015-Jul-11 09:31N 23°46' E 118°18'1111.6
2015-Jul-11 08:33N 23°39' E 118°08'1212.2
2015-Jul-11 07:33N 23°30' E 117°59'4911.9
2015-Jul-11 03:24N 23°02' E 117°15'2412.3
2015-Jul-11 01:27N 22°50' E 116°53'14112.5
2015-Jul-10 14:11N 22°09' E 114°28'812.3
2015-Jul-10 13:32N 22°08' E 114°19'1412.1
2015-Jul-10 12:21N 22°08' E 114°03'810.4
2015-Jul-10 11:33N 22°06' E 113°55'10 9.8
2015-Jul-10 10:33N 22°14' E 113°48'1313.3
2015-Jul-10 09:32N 22°27' E 113°45'1612.9
2015-Jul-10 08:20N 22°42' E 113°41'810.6
2015-Jul-10 07:32N 22°49' E 113°36'10 9.7
2015-Jul-10 06:33N 22°58' E 113°33'2 1.5
2015-Jul-10 05:30N 22°60' E 113°32'0 0.0
2015-Jul-10 04:24N 22°60' E 113°32'0 0.0
2015-Jul-10 02:30N 22°60' E 113°32'0 0.0
2015-Jul-10 01:30N 22°60' E 113°32'0 0.0
2015-Jul-10 00:30N 22°60' E 113°32'0 0.0
2015-Jul-09 23:30N 22°60' E 113°32'0 0.0
2015-Jul-09 22:30N 22°60' E 113°32'0 0.0
2015-Jul-09 21:30N 22°60' E 113°32'0 0.0
2015-Jul-09 20:24N 22°60' E 113°32'0 0.0
2015-Jul-09 19:30N 22°60' E 113°32'0 0.0
2015-Jul-09 18:30N 22°60' E 113°32'0 0.0
2015-Jul-09 17:30N 22°60' E 113°32'0 0.0
2015-Jul-09 16:24N 22°60' E 113°32'0 0.0
2015-Jul-09 15:30N 22°60' E 113°32'0 0.0
2015-Jul-09 14:30N 22°60' E 113°32'0 0.0
2015-Jul-09 13:30N 22°60' E 113°32'0 0.0
2015-Jul-09 12:30N 22°60' E 113°32'0 0.0
2015-Jul-09 11:30N 22°60' E 113°32'0 0.0
2015-Jul-09 10:24N 22°60' E 113°32'0 0.0
2015-Jul-09 09:30N 22°60' E 113°32'0 0.0
2015-Jul-09 08:30N 22°60' E 113°32'0 0.0
2015-Jul-09 07:12N 22°60' E 113°32'0 0.0
2015-Jul-09 06:18N 22°60' E 113°32'0 0.0
2015-Jul-09 05:30N 22°60' E 113°32'0 0.0
2015-Jul-09 04:12N 22°60' E 113°32'0 0.0
2015-Jul-09 03:12N 22°60' E 113°32'0 0.0
2015-Jul-09 02:24N 22°60' E 113°32'0 0.0
2015-Jul-09 01:30N 22°60' E 113°32'0 0.0
2015-Jul-09 00:12N 22°60' E 113°32'0 0.0
2015-Jul-08 23:30N 22°60' E 113°32'0 0.0
2015-Jul-08 22:24N 22°60' E 113°32'0 0.0
2015-Jul-08 21:24N 22°60' E 113°32'0 0.0
2015-Jul-08 20:30N 22°60' E 113°32'0 0.0
2015-Jul-08 18:30N 22°60' E 113°32'0 0.0
2015-Jul-08 17:30N 22°60' E 113°32'0 0.0
2015-Jul-08 16:30N 22°60' E 113°32'0 0.0
2015-Jul-08 15:24N 22°60' E 113°32'0 0.0
2015-Jul-08 14:24N 22°60' E 113°32'0 0.0
2015-Jul-08 13:24N 22°60' E 113°32'0 0.0
2015-Jul-08 12:24N 22°60' E 113°32'0 0.0
2015-Jul-08 11:24N 22°60' E 113°32'0 0.0
2015-Jul-08 10:24N 22°60' E 113°32'1 1.3
2015-Jul-08 09:33N 22°59' E 113°32'9 8.6
2015-Jul-08 08:33N 22°50' E 113°35'10 9.9
2015-Jul-08 07:33N 22°42' E 113°41'1611.6
2015-Jul-08 06:12N 22°27' E 113°45'711.6
2015-Jul-08 05:33N 22°20' E 113°48'1211.4
2015-Jul-08 04:31N 22°09' E 113°51'4 4.3
2015-Jul-08 03:31N 22°06' E 113°55'0 0.0
2015-Jul-07 11:29N 22°06' E 113°55'0 0.1
2015-Jul-07 10:23N 22°06' E 113°55'0 0.0
2015-Jul-07 08:29N 22°06' E 113°55'0 0.0
2015-Jul-07 07:29N 22°06' E 113°55'0 0.0
2015-Jul-07 06:29N 22°06' E 113°55'0 0.1
2015-Jul-07 03:29N 22°06' E 113°55'0 0.0
2015-Jul-07 02:23N 22°06' E 113°55'0 0.0
2015-Jul-07 01:23N 22°06' E 113°55'0 0.1
2015-Jul-06 22:29N 22°06' E 113°55'0 0.1
2015-Jul-06 21:23N 22°06' E 113°55'0 0.0
2015-Jul-06 19:11N 22°06' E 113°55'0 0.0
2015-Jul-06 10:29N 22°06' E 113°55'0 0.1
2015-Jul-06 09:33N 22°06' E 113°55'  
Track history (hours):
 
Tides and Currents Weather Stations Pressure Air Temp Water Temp Dewpoint Dewpoint Depression Visibility Wind Speed Wind Dir Waves Ship Positions

Beautiful Rena

Last reported at 2015-Jul-11 22:06 UTC. Time now 2015-Jul-31 17:29 UTC.
Position N 25°23' E 120°01'.
Warning: this ship's position is 19 days out of date.

Length 190 m; draft 6.5 m.

Type: Cargo ship. MMSI: 311030200.

Date/timePositionNaut miles runAvg speedWind from/ knotsBaromVisibWave heightAir tempDewpointWater temp
2015-Jul-11 22:06N 25°23' E 120°01'810.0
2015-Jul-11 21:18N 25°16' E 119°57'1210.6
2015-Jul-11 20:08N 25°05' E 119°51'610.8
2015-Jul-11 19:33N 24°60' E 119°48'5811.2
2015-Jul-11 14:23N 24°20' E 119°01'3010.4
2015-Jul-11 11:27N 24°00' E 118°35'1010.7
2015-Jul-11 10:33N 23°54' E 118°27'1211.2
2015-Jul-11 09:31N 23°46' E 118°18'1111.6
2015-Jul-11 08:33N 23°39' E 118°08'1212.2
2015-Jul-11 07:33N 23°30' E 117°59'4911.9
2015-Jul-11 03:24N 23°02' E 117°15'2412.3
2015-Jul-11 01:27N 22°50' E 116°53'14112.5
2015-Jul-10 14:11N 22°09' E 114°28'812.3
2015-Jul-10 13:32N 22°08' E 114°19'1412.1
2015-Jul-10 12:21N 22°08' E 114°03'810.4
2015-Jul-10 11:33N 22°06' E 113°55'10 9.8
2015-Jul-10 10:33N 22°14' E 113°48'1313.3
2015-Jul-10 09:32N 22°27' E 113°45'1612.9
2015-Jul-10 08:20N 22°42' E 113°41'810.6
2015-Jul-10 07:32N 22°49' E 113°36'10 9.7
2015-Jul-10 06:33N 22°58' E 113°33'2 1.5
2015-Jul-10 05:30N 22°60' E 113°32'0 0.0
2015-Jul-10 04:24N 22°60' E 113°32'0 0.0
2015-Jul-10 02:30N 22°60' E 113°32'0 0.0
2015-Jul-10 01:30N 22°60' E 113°32'0 0.0
2015-Jul-10 00:30N 22°60' E 113°32'0 0.0
2015-Jul-09 23:30N 22°60' E 113°32'0 0.0
2015-Jul-09 22:30N 22°60' E 113°32'0 0.0
2015-Jul-09 21:30N 22°60' E 113°32'0 0.0
2015-Jul-09 20:24N 22°60' E 113°32'0 0.0
2015-Jul-09 19:30N 22°60' E 113°32'0 0.0
2015-Jul-09 18:30N 22°60' E 113°32'0 0.0
2015-Jul-09 17:30N 22°60' E 113°32'0 0.0
2015-Jul-09 16:24N 22°60' E 113°32'0 0.0
2015-Jul-09 15:30N 22°60' E 113°32'0 0.0
2015-Jul-09 14:30N 22°60' E 113°32'0 0.0
2015-Jul-09 13:30N 22°60' E 113°32'0 0.0
2015-Jul-09 12:30N 22°60' E 113°32'0 0.0
2015-Jul-09 11:30N 22°60' E 113°32'0 0.0
2015-Jul-09 10:24N 22°60' E 113°32'0 0.0
2015-Jul-09 09:30N 22°60' E 113°32'0 0.0
2015-Jul-09 08:30N 22°60' E 113°32'0 0.0
2015-Jul-09 07:12N 22°60' E 113°32'0 0.0
2015-Jul-09 06:18N 22°60' E 113°32'0 0.0
2015-Jul-09 05:30N 22°60' E 113°32'0 0.0
2015-Jul-09 04:12N 22°60' E 113°32'0 0.0
2015-Jul-09 03:12N 22°60' E 113°32'0 0.0
2015-Jul-09 02:24N 22°60' E 113°32'0 0.0
2015-Jul-09 01:30N 22°60' E 113°32'0 0.0
2015-Jul-09 00:12N 22°60' E 113°32'0 0.0
2015-Jul-08 23:30N 22°60' E 113°32'0 0.0
2015-Jul-08 22:24N 22°60' E 113°32'0 0.0
2015-Jul-08 21:24N 22°60' E 113°32'0 0.0
2015-Jul-08 20:30N 22°60' E 113°32'0 0.0
2015-Jul-08 18:30N 22°60' E 113°32'0 0.0
2015-Jul-08 17:30N 22°60' E 113°32'0 0.0
2015-Jul-08 16:30N 22°60' E 113°32'0 0.0
2015-Jul-08 15:24N 22°60' E 113°32'0 0.0
2015-Jul-08 14:24N 22°60' E 113°32'0 0.0
2015-Jul-08 13:24N 22°60' E 113°32'0 0.0
2015-Jul-08 12:24N 22°60' E 113°32'0 0.0
2015-Jul-08 11:24N 22°60' E 113°32'0 0.0
2015-Jul-08 10:24N 22°60' E 113°32'1 1.3
2015-Jul-08 09:33N 22°59' E 113°32'9 8.6
2015-Jul-08 08:33N 22°50' E 113°35'10 9.9
2015-Jul-08 07:33N 22°42' E 113°41'1611.6
2015-Jul-08 06:12N 22°27' E 113°45'711.6
2015-Jul-08 05:33N 22°20' E 113°48'1211.4
2015-Jul-08 04:31N 22°09' E 113°51'4 4.3
2015-Jul-08 03:31N 22°06' E 113°55'0 0.0
2015-Jul-07 11:29N 22°06' E 113°55'0 0.1
2015-Jul-07 10:23N 22°06' E 113°55'0 0.0
2015-Jul-07 08:29N 22°06' E 113°55'0 0.0
2015-Jul-07 07:29N 22°06' E 113°55'0 0.0
2015-Jul-07 06:29N 22°06' E 113°55'0 0.1
2015-Jul-07 03:29N 22°06' E 113°55'0 0.0
2015-Jul-07 02:23N 22°06' E 113°55'0 0.0
2015-Jul-07 01:23N 22°06' E 113°55'0 0.1
2015-Jul-06 22:29N 22°06' E 113°55'0 0.1
2015-Jul-06 21:23N 22°06' E 113°55'0 0.0
2015-Jul-06 19:11N 22°06' E 113°55'0 0.0
2015-Jul-06 10:29N 22°06' E 113°55'0 0.1
2015-Jul-06 09:33N 22°06' E 113°55'  

Dump ship's entire track history